首页
METAR-TAF:

METAR-TAF

机场 :

尼斯蓝色海岸机场

尼斯, 法国

纬度: 43-39N, 经度: 007-12E, 海拔: 4米

当前天气观测

该预报发布于29分钟前的16:30 UTC
风速14节,风向
温度 22°C
湿度 69%
气压 1000 hPa
能见度10公里或以上
1500米以下无云,无积雨云

METAR: LFMN 051630Z AUTO 08014KT CAVOK 22/16 Q1000 TEMPO VRB03KT

时间: 18:59 (16:59 UTC)

预报

该预报发布于2小时和59分钟前的14:00 UTC
预报有效从05日的 15点(UTC)到 06日的 21点(UTC)
风速10节,风向
能见度10公里或以上
1500米以下无云,无积雨云
短暂存在
从 05日的 17点(UTC)到 05日的 20点(UTC)
风速3节,风向多变
成为
从 05日的 23点(UTC)到 06日的 01点(UTC)
风速10节,风向西转西北
成为
从 06日的 07点(UTC)到 06日的 09点(UTC)
风速10节,风向

TAF: LFMN 051400Z 0515/0621 09010KT CAVOK TEMPO 0517/0520 VRB03KT BECMG 0523/0601 29010KT BECMG 0607/0609 10010KT

超过4000个机场的气象观测和天气预报(METAR&TAF报告)。

可查询的气象台以黄色和红色小点在地图上表示。

将鼠标移到小点上方,可查看气象台名称。

然后点击查看天气观测和预报。

如需切换地图:点击带黑十字的绿色按钮放大地图;点击带横线的绿色按钮缩小地图;或者点击绿色箭头查看邻近地区的地图。


METAR-TAF: